Bookmark and Share
Track history (hours):
 

Callsign WCD2171 (name unknown)

Last reported at 2012-May-22 09:33 UTC. Time now 2014-Apr-24 13:51 UTC.
Position N 33°46' W 118°13'.
Warning: this ship's position is years out of date!

NotesDate/timePositionNaut miles runAvg speedWind from/ knotsBaromVisibWave heightAir tempDewpointWater temp
2012-May-22 09:33N 33°46' W 118°13'0 0.0
2012-May-22 08:33N 33°46' W 118°13'0 0.0
2012-May-22 07:33N 33°46' W 118°13'0 0.1
2012-May-22 06:33N 33°46' W 118°13'0 0.0
2012-May-22 05:33N 33°46' W 118°13'0 0.0
2012-May-22 04:37N 33°46' W 118°13'0 0.0
2012-May-22 03:27N 33°46' W 118°13'0 0.0
2012-May-22 02:28N 33°46' W 118°13'0 0.0
2012-May-22 01:29N 33°46' W 118°13'0 0.0
2012-May-22 00:33N 33°46' W 118°13'1 0.7
2012-May-21 23:30N 33°45' W 118°13'3 2.8
2012-May-21 22:29N 33°43' W 118°15'9 4.9
2012-May-21 20:33N 33°33' W 118°15'5 5.3
2012-May-21 19:33N 33°28' W 118°16'5 5.4
2012-May-21 18:33N 33°23' W 118°17'4 3.7
2012-May-21 17:33N 33°19' W 118°18'0 0.2
2012-May-21 16:32N 33°19' W 118°18'0 0.0
2012-May-21 15:30N 33°19' W 118°18'0 0.2
2012-May-21 14:33N 33°19' W 118°18'0 0.4
2012-May-21 13:32N 33°19' W 118°18'27 5.4
2012-May-21 08:33N 33°46' W 118°13'0 0.0
2012-May-21 07:33N 33°46' W 118°13'0 0.0
2012-May-21 06:33N 33°46' W 118°13'0 0.1
2012-May-21 05:33N 33°46' W 118°13'0 0.0
2012-May-21 04:36N 33°46' W 118°13'0 0.0
2012-May-21 03:33N 33°46' W 118°13'0 0.0
2012-May-21 02:30N 33°46' W 118°13'0 0.0
2012-May-20 20:32N 33°46' W 118°13'0 0.1
2012-May-20 19:33N 33°46' W 118°13'0 0.0
2012-May-20 18:29N 33°46' W 118°13'0 0.0
2012-May-20 17:28N 33°46' W 118°13'0 0.0
2012-May-20 16:32N 33°46' W 118°13'0 0.1
2012-May-20 15:33N 33°46' W 118°13'0 0.0
2012-May-20 14:33N 33°46' W 118°13'0 0.0
2012-May-20 13:33N 33°46' W 118°13'0 0.0
2012-May-20 12:33N 33°46' W 118°13'0 0.0
2012-May-20 11:32N 33°46' W 118°13'0 0.0
2012-May-20 10:34N 33°46' W 118°13'0 0.0
2012-May-20 09:33N 33°46' W 118°13'0 0.0
2012-May-20 08:33N 33°46' W 118°13'0 0.0
2012-May-20 07:32N 33°46' W 118°13'0 0.1
2012-May-20 06:33N 33°46' W 118°13'0 0.0
2012-May-20 05:32N 33°46' W 118°13'0 0.0
2012-May-20 02:29N 33°46' W 118°13'0 0.0
2012-May-19 23:32N 33°46' W 118°13'0 0.1
2012-May-19 22:33N 33°46' W 118°13'0 0.0
2012-May-19 21:31N 33°46' W 118°13'0 0.0
2012-May-19 20:27N 33°46' W 118°13'0 0.0
2012-May-19 19:33N 33°46' W 118°13'0 0.0
2012-May-19 18:31N 33°46' W 118°13'0 0.0
2012-May-19 17:33N 33°46' W 118°13'0 0.0
2012-May-19 16:28N 33°46' W 118°13'0 0.1
2012-May-19 15:32N 33°46' W 118°13'0 0.0
2012-May-19 14:30N 33°46' W 118°13'0 0.1
2012-May-19 13:33N 33°46' W 118°13'0 0.0
2012-May-19 12:33N 33°46' W 118°13'0 0.0
2012-May-19 11:33N 33°46' W 118°13'0 0.1
2012-May-19 10:35N 33°46' W 118°13'0 0.0
2012-May-19 09:29N 33°46' W 118°13'0 0.0
2012-May-19 08:32N 33°46' W 118°13'0 0.0
2012-May-19 07:31N 33°46' W 118°13'0 0.1
2012-May-19 06:33N 33°46' W 118°13'0 0.0
2012-May-19 05:32N 33°46' W 118°13'0 0.0
2012-May-19 04:37N 33°46' W 118°13'0 0.0
2012-May-19 03:31N 33°46' W 118°13'0 0.1
2012-May-19 02:33N 33°46' W 118°13'0 0.0
2012-May-19 01:31N 33°46' W 118°13'0 0.0
2012-May-18 23:31N 33°46' W 118°13'0 0.0
2012-May-18 22:32N 33°46' W 118°13'0 0.0
2012-May-18 21:34N 33°46' W 118°13'0 0.0
2012-May-18 20:29N 33°46' W 118°13'0 0.0
2012-May-18 19:31N 33°46' W 118°13'0 0.0
2012-May-18 18:33N 33°46' W 118°13'0 0.0
2012-May-18 17:23N 33°46' W 118°13'0 0.0
2012-May-18 16:34N 33°46' W 118°13'0 0.0
2012-May-18 15:33N 33°46' W 118°13'0 0.0
2012-May-18 14:33N 33°46' W 118°13'0 0.0
2012-May-18 13:33N 33°46' W 118°13'0 0.0
2012-May-18 12:29N 33°46' W 118°13'0 0.1
2012-May-18 11:33N 33°46' W 118°13'0 0.1
2012-May-18 10:36N 33°46' W 118°13'0 0.0
2012-May-18 08:29N 33°46' W 118°13'0 0.0
2012-May-18 07:30N 33°46' W 118°13'0 0.0
2012-May-18 06:31N 33°46' W 118°13'0 0.1
2012-May-18 05:33N 33°46' W 118°13'0 0.0
2012-May-18 04:34N 33°46' W 118°13'0 0.0
2012-May-18 02:30N 33°46' W 118°13'0 0.1
2012-May-18 01:33N 33°46' W 118°13'0 0.0
2012-May-18 00:29N 33°46' W 118°13'0 0.0
2012-May-17 23:33N 33°46' W 118°13'0 0.0
2012-May-17 22:33N 33°46' W 118°13'0 0.0
2012-May-17 21:32N 33°46' W 118°13'0 0.0
2012-May-17 20:33N 33°46' W 118°13'0 0.0
2012-May-17 19:30N 33°46' W 118°13'0 0.0
2012-May-17 18:33N 33°46' W 118°13'0 0.0
2012-May-17 17:33N 33°46' W 118°13'0 0.0
2012-May-17 16:33N 33°46' W 118°13'0 0.0
2012-May-17 15:33N 33°46' W 118°13'0 0.0
2012-May-17 14:33N 33°46' W 118°13'0 0.0
2012-May-17 13:30N 33°46' W 118°13'0 0.0
2012-May-17 12:30N 33°46' W 118°13'0 0.1
2012-May-17 11:33N 33°46' W 118°13'0 0.0
2012-May-17 10:35N 33°46' W 118°13'0 0.0
2012-May-17 09:33N 33°46' W 118°13'0 0.0
2012-May-17 08:33N 33°46' W 118°13'0 0.1
2012-May-17 07:33N 33°46' W 118°13'0 0.0
2012-May-17 06:33N 33°46' W 118°13'0 0.0
2012-May-17 05:34N 33°46' W 118°13'0 0.0
2012-May-17 04:37N 33°46' W 118°13'0 0.0
2012-May-17 03:33N 33°46' W 118°13'0 0.0
2012-May-17 02:31N 33°46' W 118°13'0 0.0
2012-May-17 01:34N 33°46' W 118°13'0 0.0
2012-May-17 00:33N 33°46' W 118°13'0 0.0
2012-May-16 23:34N 33°46' W 118°13'0 0.0
2012-May-16 22:31N 33°46' W 118°13'0 0.0
2012-May-16 21:28N 33°46' W 118°13'0 0.0
2012-May-16 20:34N 33°46' W 118°13'0 0.0
2012-May-16 19:32N 33°46' W 118°13'0 0.0
2012-May-16 18:31N 33°46' W 118°13'0 0.1
2012-May-16 17:33N 33°46' W 118°13'0 0.0
2012-May-16 16:33N 33°46' W 118°13'0 0.0
2012-May-16 15:33N 33°46' W 118°13'0 0.0
2012-May-16 14:30N 33°46' W 118°13'0 0.0
2012-May-16 13:33N 33°46' W 118°13'0 0.0
2012-May-16 12:31N 33°46' W 118°13'0 0.0
2012-May-16 11:33N 33°46' W 118°13'0 0.0
2012-May-16 10:35N 33°46' W 118°13'0 0.0
2012-May-16 09:33N 33°46' W 118°13'0 0.0
2012-May-16 08:28N 33°46' W 118°13'0 0.0
2012-May-16 07:32N 33°46' W 118°13'0 0.0
2012-May-16 06:33N 33°46' W 118°13'0 0.0
2012-May-16 05:33N 33°46' W 118°13'0 0.0
2012-May-16 04:36N 33°46' W 118°13'0 0.0
2012-May-16 02:31N 33°46' W 118°13'0 0.0
2012-May-16 01:33N 33°46' W 118°13'0 0.1
2012-May-16 00:33N 33°46' W 118°13'0 0.0
2012-May-15 23:34N 33°46' W 118°13'0 0.0
2012-May-15 22:32N 33°46' W 118°13'0 0.0
2012-May-15 21:33N 33°46' W 118°13'0 0.0
2012-May-15 19:31N 33°46' W 118°13'0 0.0
2012-May-15 18:33N 33°46' W 118°13'0 0.0
2012-May-15 16:26N 33°46' W 118°13'0 0.0
2012-May-15 15:32N 33°46' W 118°13'0 0.0
2012-May-15 14:33N 33°46' W 118°13'0 0.0
2012-May-15 13:33N 33°46' W 118°13'0 0.0
2012-May-15 12:31N 33°46' W 118°13'0 0.0
2012-May-15 11:32N 33°46' W 118°13'0 0.0
2012-May-15 10:35N 33°46' W 118°13'0 0.0
2012-May-15 09:31N 33°46' W 118°13'0 0.0
2012-May-15 08:33N 33°46' W 118°13'0 0.0
2012-May-15 07:30N 33°46' W 118°13'0 0.0
2012-May-15 06:33N 33°46' W 118°13'0 0.0
2012-May-15 05:31N 33°46' W 118°13'0 0.0
2012-May-15 04:36N 33°46' W 118°13'0 0.0
2012-May-15 03:33N 33°46' W 118°13'0 0.0
2012-May-15 02:33N 33°46' W 118°13'0 0.0
2012-May-15 00:31N 33°46' W 118°13'0 0.0
2012-May-14 23:33N 33°46' W 118°13'0 0.0
2012-May-14 22:33N 33°46' W 118°13'0 0.0
2012-May-14 20:27N 33°46' W 118°13'0 0.1
2012-May-14 19:32N 33°46' W 118°13'0 0.0
2012-May-14 18:29N 33°46' W 118°13'0 0.0
2012-May-14 16:28N 33°46' W 118°13'0 0.1
2012-May-14 15:31N 33°46' W 118°13'0 0.0
2012-May-14 09:28N 33°46' W 118°13'0 0.0
2012-May-14 08:27N 33°46' W 118°13'0 0.0
2012-May-14 06:31N 33°46' W 118°13'0 0.0
2012-May-14 06:16N 33°46' W 118°13'0 0.0
2012-May-14 05:31N 33°46' W 118°13'0 0.0
2012-May-14 03:29N 33°46' W 118°13'0 0.0
2012-May-13 19:33N 33°46' W 118°13'0 0.0
2012-May-13 17:26N 33°46' W 118°13'0 0.0
2012-May-13 14:30N 33°46' W 118°13'0 0.0
2012-May-13 13:24N 33°46' W 118°13'0 0.0
2012-May-13 09:33N 33°46' W 118°13'0 0.0
2012-May-13 08:32N 33°46' W 118°13'0 0.0
2012-May-13 03:26N 33°46' W 118°13'0 0.0
2012-May-12 22:25N 33°46' W 118°13'0 0.0
2012-May-12 21:26N 33°46' W 118°13'0 0.1
2012-May-12 20:33N 33°46' W 118°13'0 0.0
2012-May-12 18:24N 33°46' W 118°13'0 0.1
2012-May-12 17:28N 33°46' W 118°13'0 0.0
2012-May-12 15:33N 33°46' W 118°13'0 0.0
2012-May-12 13:30N 33°46' W 118°13'0 0.0
2012-May-12 11:30N 33°46' W 118°13'0 0.0
2012-May-12 10:32N 33°46' W 118°13'  

Dump ship's entire track history

sailing weather and tide predictions

Ship Status Report: callsign WCD2171